Weather

HUBS METAR

EGHQ Newquay Cornwall Airport


EGHQ 022020Z AUTO 29014KT 9999 BKN029/// 08/04 Q1015

Weather

EGHC Land's End Airport


EGHC 021720Z 31013KT 9999 FEW015 SCT018 08/04 Q1017

EGHE St. Mary's Airport


EGHE 021650Z 31016KT 9999 BKN034 10/04 Q1019

   

FLIGHT DETAILS

   

AirlinePilot IDFlightTimeDestinationArrival Time
Brymon AirwaysBRY01BC40107:15:00Gatwick08:55:00
Brymon AirwaysBRY05VF10919:15:00Isle of Man20:52:00
VirtualflyteBRY05VF10810:30:00East Midlands11:35:00
VirtualflyteBRY05VF10719:30:00Norwich20:45:00